createdAt,value
2022-11-03T00:02:49.379Z,5.90
2022-11-03T00:07:49.197Z,6.10
2022-11-03T00:12:49.158Z,5.80
2022-11-03T00:17:49.106Z,5.60
2022-11-03T00:22:49.059Z,5.90
2022-11-03T00:27:49.017Z,5.60
2022-11-03T00:32:48.905Z,5.70
2022-11-03T00:37:48.851Z,5.90
2022-11-03T00:42:48.758Z,5.30
2022-11-03T00:47:48.747Z,5.70
2022-11-03T00:52:48.668Z,5.40
2022-11-03T00:57:48.645Z,5.50
2022-11-03T01:02:48.532Z,6.00
2022-11-03T01:07:48.530Z,5.90
2022-11-03T01:12:48.354Z,5.40
2022-11-03T01:17:48.346Z,5.40
2022-11-03T01:22:48.254Z,5.50
2022-11-03T01:27:48.192Z,5.80
2022-11-03T01:32:48.101Z,5.60
2022-11-03T01:37:48.022Z,5.70
2022-11-03T01:42:47.973Z,5.60
2022-11-03T01:47:47.966Z,5.30
2022-11-03T01:52:47.861Z,5.40
2022-11-03T01:57:47.781Z,5.80
2022-11-03T02:02:47.721Z,5.50
2022-11-03T02:07:47.632Z,5.60
2022-11-03T02:12:47.609Z,5.30
2022-11-03T02:17:47.518Z,5.10
2022-11-03T02:22:47.555Z,5.10
2022-11-03T02:27:47.434Z,5.10
2022-11-03T02:32:47.357Z,5.40
2022-11-03T02:37:47.313Z,5.80
2022-11-03T02:42:47.247Z,5.70
2022-11-03T02:47:47.143Z,6.00
2022-11-03T02:52:47.092Z,5.60
2022-11-03T02:57:47.021Z,5.70
2022-11-03T03:02:46.986Z,5.80
2022-11-03T03:07:46.995Z,5.80
2022-11-03T03:12:47.008Z,6.00
2022-11-03T03:17:46.791Z,6.10
2022-11-03T03:22:46.768Z,6.70
2022-11-03T03:27:46.654Z,6.00
2022-11-03T03:32:46.631Z,6.00
2022-11-03T03:37:46.509Z,6.80
2022-11-03T03:42:46.502Z,6.40
2022-11-03T03:47:46.463Z,6.50
2022-11-03T03:52:46.340Z,6.10
2022-11-03T03:57:46.339Z,6.80
2022-11-03T04:02:46.219Z,5.50
2022-11-03T04:07:46.138Z,6.10
2022-11-03T04:12:46.090Z,5.90
2022-11-03T04:22:45.932Z,6.80
2022-11-03T04:27:45.902Z,6.40
2022-11-03T04:32:45.845Z,7.40
2022-11-03T04:37:47.876Z,6.60
2022-11-03T04:42:45.667Z,7.20
2022-11-03T04:47:45.674Z,6.90
2022-11-03T04:52:45.550Z,6.30
2022-11-03T04:57:45.493Z,6.90
2022-11-03T05:02:45.435Z,7.80
2022-11-03T05:07:45.346Z,8.40
2022-11-03T05:12:45.291Z,8.30
2022-11-03T05:17:45.267Z,8.50
2022-11-03T05:22:45.169Z,8.20
2022-11-03T05:27:45.098Z,8.50
2022-11-03T05:32:45.124Z,8.70
2022-11-03T05:37:44.945Z,9.00
2022-11-03T05:42:44.887Z,9.20
2022-11-03T05:47:44.826Z,9.60
2022-11-03T05:52:44.793Z,9.60
2022-11-03T05:57:44.689Z,8.70
2022-11-03T06:02:44.696Z,8.70
2022-11-03T06:07:44.570Z,8.60
2022-11-03T06:12:44.553Z,8.70
2022-11-03T06:17:44.440Z,9.30
2022-11-03T06:22:44.484Z,8.50
2022-11-03T06:27:44.356Z,8.50
2022-11-03T06:32:44.259Z,8.70
2022-11-03T06:37:44.211Z,7.70
2022-11-03T06:42:44.127Z,7.90
2022-11-03T06:47:44.059Z,7.40
2022-11-03T06:52:44.053Z,7.90
2022-11-03T06:57:43.925Z,7.20
2022-11-03T07:02:43.887Z,6.30
2022-11-03T07:07:43.832Z,6.40
2022-11-03T07:12:43.763Z,6.10
2022-11-03T07:17:43.727Z,5.90
2022-11-03T07:22:43.618Z,6.00
2022-11-03T07:27:43.560Z,5.90
2022-11-03T07:32:43.480Z,5.20
2022-11-03T07:37:43.409Z,5.10
2022-11-03T07:42:43.348Z,4.60
2022-11-03T07:47:43.313Z,4.10
2022-11-03T07:52:43.214Z,3.70
2022-11-03T07:57:43.187Z,3.40
2022-11-03T08:02:43.119Z,3.30
2022-11-03T08:07:43.417Z,3.20
2022-11-03T08:12:43.083Z,2.90
2022-11-03T08:17:42.867Z,3.40
2022-11-03T08:22:49.760Z,2.80
2022-11-03T08:27:43.992Z,3.20
2022-11-03T08:32:42.673Z,2.80
2022-11-03T08:37:42.645Z,3.10
2022-11-03T08:42:43.351Z,3.20
2022-11-03T08:47:42.476Z,2.80
2022-11-03T08:52:42.417Z,2.70
2022-11-03T08:57:42.674Z,2.90
2022-11-03T09:02:42.508Z,2.70
2022-11-03T09:12:43.204Z,2.70
2022-11-03T09:17:44.769Z,2.30
2022-11-03T09:22:42.045Z,2.40
2022-11-03T09:27:41.936Z,2.50
2022-11-03T09:32:41.876Z,2.50
2022-11-03T09:37:41.804Z,2.60
2022-11-03T09:42:41.771Z,2.70
2022-11-03T09:47:41.679Z,2.30
2022-11-03T09:52:41.622Z,2.30
2022-11-03T09:57:42.656Z,2.10
2022-11-03T10:02:41.560Z,2.00
2022-11-03T10:07:41.524Z,2.10
2022-11-03T10:12:41.361Z,2.30
2022-11-03T10:17:41.322Z,2.40
2022-11-03T10:22:41.492Z,2.00
2022-11-03T10:27:41.180Z,2.00
2022-11-03T10:32:41.131Z,2.10
2022-11-03T10:37:41.059Z,2.00
2022-11-03T10:42:41.068Z,1.70
2022-11-03T10:47:40.975Z,1.40
2022-11-03T10:52:40.969Z,1.50
2022-11-03T10:57:40.864Z,1.20
2022-11-03T11:02:40.786Z,1.10
2022-11-03T11:07:40.776Z,1.30
2022-11-03T11:12:40.559Z,1.30
2022-11-03T11:17:40.509Z,1.60
2022-11-03T11:22:40.421Z,1.40
2022-11-03T11:27:40.386Z,1.60
2022-11-03T11:32:40.300Z,1.30
2022-11-03T11:37:40.410Z,1.50
2022-11-03T11:42:40.263Z,1.50
2022-11-03T11:47:40.126Z,1.50
2022-11-03T11:52:40.023Z,1.50
2022-11-03T11:57:39.971Z,1.60
2022-11-03T12:02:39.941Z,1.70
2022-11-03T12:07:39.843Z,1.50
2022-11-03T12:12:39.815Z,1.50
2022-11-03T12:17:39.782Z,1.80
2022-11-03T12:22:39.633Z,2.10
2022-11-03T12:27:39.571Z,1.70
2022-11-03T12:32:39.527Z,2.10
2022-11-03T12:37:39.514Z,1.90
2022-11-03T12:42:39.364Z,1.90
2022-11-03T12:47:39.305Z,2.00
2022-11-03T12:52:39.265Z,2.50
2022-11-03T12:57:39.210Z,2.60
2022-11-03T13:02:39.297Z,2.50
2022-11-03T13:07:39.048Z,3.00
2022-11-03T13:12:38.967Z,2.90
2022-11-03T13:18:07.567Z,3.10
2022-11-03T13:22:39.843Z,3.10
2022-11-03T13:27:39.066Z,3.30
2022-11-03T13:32:38.724Z,3.30
2022-11-03T13:37:38.678Z,5.70
2022-11-03T13:42:38.594Z,3.50
2022-11-03T13:48:11.094Z,3.70
2022-11-03T13:52:39.498Z,3.60
2022-11-03T14:07:39.769Z,3.60
2022-11-03T14:12:38.222Z,3.60
2022-11-03T14:17:38.123Z,3.70
2022-11-03T14:22:38.236Z,3.80
2022-11-03T14:27:39.921Z,4.40
2022-11-03T14:32:38.967Z,4.40
2022-11-03T14:37:38.222Z,4.20
2022-11-03T14:42:37.804Z,4.60
2022-11-03T14:47:37.763Z,4.40
2022-11-03T14:52:37.680Z,4.40
2022-11-03T14:57:37.645Z,5.30
2022-11-03T15:02:37.625Z,4.40
2022-11-03T15:07:37.503Z,4.40
2022-11-03T15:12:37.434Z,4.50
2022-11-03T15:17:39.135Z,5.60
2022-11-03T15:27:38.215Z,5.10
2022-11-03T15:32:37.182Z,4.90
2022-11-03T15:37:37.097Z,5.30
2022-11-03T15:42:37.019Z,5.30
2022-11-03T15:47:37.027Z,5.40
2022-11-03T15:52:36.884Z,5.40
2022-11-03T15:57:37.088Z,4.90
2022-11-03T16:02:41.453Z,5.40
2022-11-03T16:07:37.730Z,5.30
2022-11-03T16:12:36.669Z,5.00
2022-11-03T16:17:40.116Z,5.00
2022-11-03T16:22:37.467Z,5.30
2022-11-03T16:27:36.451Z,5.00
2022-11-03T16:32:36.362Z,4.90
2022-11-03T16:37:36.580Z,5.10
2022-11-03T16:42:36.243Z,5.50
2022-11-03T16:47:36.172Z,5.10
2022-11-03T16:52:36.182Z,4.90
2022-11-03T16:57:36.015Z,4.70
2022-11-03T17:02:36.025Z,4.70
2022-11-03T17:07:35.877Z,4.60
2022-11-03T17:12:35.880Z,4.50
2022-11-03T17:17:35.775Z,4.70
2022-11-03T17:22:35.698Z,5.30
2022-11-03T17:27:35.677Z,5.40
2022-11-03T17:32:35.869Z,5.00
2022-11-03T17:37:35.934Z,5.20
2022-11-03T17:42:35.466Z,5.50
2022-11-03T17:47:36.837Z,4.40
2022-11-03T17:52:35.446Z,5.20
2022-11-03T17:57:35.279Z,5.40
2022-11-03T18:02:35.353Z,5.90
2022-11-03T18:07:35.289Z,5.40
2022-11-03T18:12:35.048Z,6.20
2022-11-03T18:17:34.970Z,6.30
2022-11-03T18:22:35.020Z,6.20
2022-11-03T18:27:34.934Z,6.50
2022-11-03T18:32:36.038Z,6.10
2022-11-03T18:37:34.841Z,6.70
2022-11-03T18:42:34.737Z,7.50
2022-11-03T18:47:34.634Z,7.30
2022-11-03T18:52:34.595Z,6.70
2022-11-03T18:57:34.468Z,6.70
2022-11-03T19:02:34.914Z,7.00
2022-11-03T19:07:34.332Z,6.70
2022-11-03T19:12:38.793Z,6.80
2022-11-03T19:17:34.148Z,7.10
2022-11-03T19:22:34.361Z,7.40
2022-11-03T19:27:34.072Z,8.00
2022-11-03T19:32:33.965Z,7.50
2022-11-03T19:37:35.902Z,8.30
2022-11-03T19:42:33.832Z,8.60
2022-11-03T19:47:33.864Z,8.80
2022-11-03T19:52:33.712Z,8.80
2022-11-03T19:57:33.651Z,8.90
2022-11-03T20:02:33.894Z,9.30
2022-11-03T20:07:33.521Z,9.70
2022-11-03T20:12:33.775Z,8.70
2022-11-03T20:17:33.576Z,8.60
2022-11-03T20:22:33.373Z,7.70
2022-11-03T20:27:33.350Z,8.00
2022-11-03T20:32:33.234Z,7.80
2022-11-03T20:37:33.149Z,8.10
2022-11-03T20:42:33.056Z,7.80
2022-11-03T20:47:33.060Z,8.10
2022-11-03T20:52:32.945Z,7.60
2022-11-03T20:57:32.862Z,7.70
2022-11-03T21:02:33.170Z,7.90
2022-11-03T21:07:32.933Z,7.70
2022-11-03T21:12:32.646Z,8.50
2022-11-03T21:17:32.596Z,7.70
2022-11-03T21:27:34.657Z,7.90
2022-11-03T21:32:32.417Z,7.50
2022-11-03T21:37:32.311Z,8.40
2022-11-03T21:42:32.266Z,7.10
2022-11-03T21:47:32.225Z,7.00
2022-11-03T21:52:32.238Z,6.90
2022-11-03T21:57:32.121Z,7.00
2022-11-03T22:02:32.008Z,6.70
2022-11-03T22:07:31.942Z,7.10
2022-11-03T22:12:31.911Z,6.50
2022-11-03T22:17:31.804Z,6.50
2022-11-03T22:22:31.801Z,6.40
2022-11-03T22:27:31.701Z,5.80
2022-11-03T22:32:31.568Z,6.40
2022-11-03T22:38:09.926Z,5.90
2022-11-03T22:43:10.087Z,6.30
2022-11-03T22:48:09.654Z,6.40
2022-11-03T22:53:09.821Z,6.50
2022-11-03T22:58:09.507Z,6.10
2022-11-03T23:03:09.805Z,6.20
2022-11-03T23:08:09.398Z,5.90
2022-11-03T23:13:09.739Z,6.10
2022-11-03T23:18:09.281Z,6.00
2022-11-03T23:23:09.358Z,6.30
2022-11-03T23:28:09.104Z,5.90
2022-11-03T23:33:09.454Z,6.50
2022-11-03T23:38:09.187Z,6.30
2022-11-03T23:43:08.893Z,6.30
2022-11-03T23:48:09.227Z,6.60
2022-11-03T23:53:08.810Z,6.60
2022-11-03T23:58:09.031Z,6.60
